Time;durP1;ratioP1;P1;durP2;ratioP2;P2;SDS_P1;SDS_P2;PMS_P1;PMS_P2;Temp;Humidity;BMP_temperature;BMP_pressure;BME280_temperature;BME280_humidity;BME280_pressure;Samples;Min_cycle;Max_cycle;Signal;HPM_P1;HPM_P2
2023/06/30 00:01:01;;;;;;;7.23;6.43;;;19.20;99.90;;;;;;5099168;28;20171;-59
2023/06/30 00:03:35;;;;;;;6.30;4.80;;;19.20;99.90;;;;;;5099553;28;20182;-58
2023/06/30 00:06:16;;;;;;;6.00;4.03;;;19.20;99.90;;;;;;5098553;28;20171;-57
2023/06/30 00:09:04;;;;;;;5.43;4.03;;;19.10;99.90;;;;;;5099661;28;20191;-58
2023/06/30 00:11:40;;;;;;;7.20;3.53;;;19.10;99.90;;;;;;5100996;28;20612;-59
2023/06/30 00:14:11;;;;;;;5.03;3.30;;;19.10;99.90;;;;;;5100482;28;20179;-59
2023/06/30 00:16:49;;;;;;;3.73;3.00;;;19.10;99.90;;;;;;5099210;28;20233;-58
2023/06/30 00:19:30;;;;;;;4.77;2.50;;;19.10;99.90;;;;;;5097018;28;20778;-58
2023/06/30 00:21:56;;;;;;;6.03;2.50;;;19.00;99.90;;;;;;5099032;28;20179;-59
2023/06/30 00:24:32;;;;;;;2.80;2.10;;;19.00;99.90;;;;;;5098972;28;20164;-59
2023/06/30 00:27:04;;;;;;;6.13;2.37;;;19.00;99.90;;;;;;5098151;28;20188;-56
2023/06/30 00:29:47;;;;;;;4.47;2.03;;;19.00;99.90;;;;;;5097693;28;20191;-59
2023/06/30 00:32:20;;;;;;;7.60;2.93;;;19.00;99.90;;;;;;5096575;28;20247;-56
2023/06/30 00:34:46;;;;;;;3.80;2.40;;;19.00;99.90;;;;;;5098024;28;20169;-54
2023/06/30 00:37:19;;;;;;;5.50;2.50;;;19.00;99.90;;;;;;5098684;28;20168;-56
2023/06/30 00:39:52;;;;;;;4.93;2.73;;;19.00;99.90;;;;;;5099726;28;20175;-57
2023/06/30 00:42:20;;;;;;;7.33;3.00;;;19.00;99.90;;;;;;5099001;28;20583;-57
2023/06/30 00:44:51;;;;;;;2.87;2.67;;;18.90;99.90;;;;;;5098873;28;20278;-59
2023/06/30 00:47:27;;;;;;;3.63;2.73;;;19.00;99.90;;;;;;5097847;28;20284;-59
2023/06/30 00:49:55;;;;;;;4.10;2.77;;;19.00;99.90;;;;;;5098484;28;20176;-59
2023/06/30 00:52:26;;;;;;;4.17;3.03;;;19.00;99.90;;;;;;5098294;28;20602;-57
2023/06/30 00:54:55;;;;;;;2.80;2.60;;;19.00;99.90;;;;;;5097813;28;20594;-58
2023/06/30 00:57:23;;;;;;;2.80;2.60;;;19.00;99.90;;;;;;5098757;28;20172;-56
2023/06/30 00:59:51;;;;;;;3.67;2.87;;;19.00;99.90;;;;;;5099657;28;20176;-55
2023/06/30 01:02:51;;;;;;;4.40;3.10;;;19.00;99.90;;;;;;5097120;28;20286;-59
2023/06/30 01:05:25;;;;;;;5.43;3.10;;;18.90;99.90;;;;;;5096796;28;20207;-58
2023/06/30 01:08:20;;;;;;;3.40;3.10;;;18.90;99.90;;;;;;5097139;28;20255;-58
2023/06/30 01:10:53;;;;;;;5.03;3.53;;;19.00;99.90;;;;;;5097402;28;20594;-56
2023/06/30 01:13:29;;;;;;;5.40;3.20;;;18.90;99.90;;;;;;5096622;28;20258;-59
2023/06/30 01:16:00;;;;;;;3.87;2.30;;;18.80;99.90;;;;;;5096575;28;20171;-58
2023/06/30 01:18:26;;;;;;;3.23;2.07;;;18.80;99.90;;;;;;5096310;28;20168;-57
2023/06/30 01:21:22;;;;;;;3.27;2.07;;;18.80;99.90;;;;;;5095085;28;20516;-57
2023/06/30 01:24:12;;;;;;;5.37;2.30;;;18.80;99.90;;;;;;5096827;28;20654;-61
2023/06/30 01:26:38;;;;;;;3.03;2.40;;;18.80;99.90;;;;;;5096487;28;20171;-58
2023/06/30 01:29:06;;;;;;;2.83;2.23;;;18.80;99.90;;;;;;5097732;28;20168;-58
2023/06/30 01:31:44;;;;;;;6.53;2.30;;;18.80;99.90;;;;;;5096932;28;20211;-58
2023/06/30 01:34:09;;;;;;;5.00;2.87;;;18.70;99.90;;;;;;5096433;28;20172;-58
2023/06/30 01:36:38;;;;;;;2.63;2.17;;;18.70;99.90;;;;;;5096505;28;20189;-58
2023/06/30 01:39:04;;;;;;;6.00;2.40;;;18.70;99.90;;;;;;5096404;28;20164;-58
2023/06/30 01:41:30;;;;;;;7.33;3.20;;;18.70;99.90;;;;;;5096477;28;20176;-58
2023/06/30 01:43:56;;;;;;;4.43;2.87;;;18.70;99.90;;;;;;5096141;28;20176;-58
2023/06/30 01:46:29;;;;;;;4.83;3.40;;;18.70;99.90;;;;;;5097216;28;20175;-56
2023/06/30 01:48:55;;;;;;;8.27;3.27;;;18.70;99.90;;;;;;5096761;28;20236;-58
2023/06/30 01:51:21;;;;;;;5.73;3.33;;;18.60;99.90;;;;;;5097182;28;20314;-58
2023/06/30 01:53:48;;;;;;;4.27;3.30;;;18.60;99.90;;;;;;5095818;28;20172;-58
2023/06/30 01:56:16;;;;;;;7.37;2.97;;;18.60;99.90;;;;;;5096108;28;20210;-57
2023/06/30 01:58:42;;;;;;;6.77;3.47;;;18.60;99.90;;;;;;5096826;28;20172;-57
2023/06/30 02:01:10;;;;;;;4.97;3.03;;;18.60;99.90;;;;;;5099797;28;20666;-58
2023/06/30 02:03:41;;;;;;;5.17;2.73;;;18.50;99.90;;;;;;5099308;28;20176;-57
2023/06/30 02:06:12;;;;;;;7.87;3.20;;;18.50;99.90;;;;;;5099075;28;20176;-57
2023/06/30 02:08:37;;;;;;;10.63;2.87;;;18.50;99.90;;;;;;5098948;28;20183;-57
2023/06/30 02:11:03;;;;;;;5.77;3.10;;;18.50;99.90;;;;;;5099927;28;20207;-58
2023/06/30 02:13:36;;;;;;;5.43;2.40;;;18.50;99.90;;;;;;5098561;28;20650;-58
2023/06/30 02:16:04;;;;;;;7.23;2.73;;;18.50;99.90;;;;;;5098528;28;20340;-58
2023/06/30 02:18:30;;;;;;;6.90;2.77;;;18.50;99.90;;;;;;5099869;28;20195;-58
2023/06/30 02:20:59;;;;;;;5.73;3.00;;;18.50;99.90;;;;;;5100465;28;20540;-58
2023/06/30 02:23:27;;;;;;;3.30;2.30;;;18.50;99.90;;;;;;5099945;28;20251;-58
2023/06/30 02:25:52;;;;;;;6.47;2.70;;;18.60;99.90;;;;;;5100580;28;20726;-58
2023/06/30 02:28:18;;;;;;;6.63;2.67;;;18.50;99.90;;;;;;5099776;28;20560;-58
2023/06/30 02:30:44;;;;;;;5.93;2.57;;;18.50;99.90;;;;;;5099708;28;20603;-59
2023/06/30 02:33:12;;;;;;;7.90;2.77;;;18.50;99.90;;;;;;5099054;28;20568;-58
2023/06/30 02:35:40;;;;;;;4.93;2.67;;;18.50;99.90;;;;;;5099070;28;20268;-58
2023/06/30 02:38:06;;;;;;;6.17;2.47;;;18.50;99.90;;;;;;5098952;28;20168;-58
2023/06/30 02:40:36;;;;;;;4.77;2.77;;;18.50;99.90;;;;;;5099368;28;20199;-57
2023/06/30 02:43:02;;;;;;;7.97;3.90;;;18.50;99.90;;;;;;5099476;28;20188;-57
2023/06/30 02:45:31;;;;;;;4.50;3.10;;;18.50;99.90;;;;;;5100090;28;20546;-56
2023/06/30 02:47:56;;;;;;;5.67;2.80;;;18.50;99.90;;;;;;5099638;28;20179;-57
2023/06/30 02:50:29;;;;;;;7.23;2.73;;;18.40;99.90;;;;;;5099306;28;20186;-58
2023/06/30 02:52:55;;;;;;;6.83;2.80;;;18.40;99.90;;;;;;5097164;28;20455;-57
2023/06/30 02:55:21;;;;;;;11.43;3.27;;;18.40;99.90;;;;;;5095044;28;20183;-56
2023/06/30 02:57:47;;;;;;;8.07;3.30;;;18.30;99.90;;;;;;5097004;28;20240;-57
2023/06/30 03:00:13;;;;;;;5.90;3.00;;;18.30;99.90;;;;;;5096581;28;20271;-57
2023/06/30 03:02:39;;;;;;;6.03;3.30;;;18.30;99.90;;;;;;5095108;28;20172;-57
2023/06/30 03:05:06;;;;;;;7.10;3.10;;;18.30;99.90;;;;;;5095361;28;20183;-58
2023/06/30 03:07:32;;;;;;;6.27;3.90;;;18.30;99.90;;;;;;5096133;28;20562;-57
2023/06/30 03:10:01;;;;;;;6.23;3.90;;;18.30;99.90;;;;;;5095084;28;20199;-58
2023/06/30 03:12:30;;;;;;;6.83;5.40;;;18.30;99.90;;;;;;5094508;28;20434;-57
2023/06/30 03:14:56;;;;;;;5.77;4.87;;;18.30;99.90;;;;;;5097390;28;20172;-57
2023/06/30 03:17:24;;;;;;;7.93;4.30;;;18.30;99.90;;;;;;5099596;28;20168;-54
2023/06/30 03:19:49;;;;;;;9.43;4.03;;;18.30;99.90;;;;;;5098810;28;20172;-55
2023/06/30 03:22:15;;;;;;;9.53;3.83;;;18.30;99.90;;;;;;5101173;28;20184;-58
2023/06/30 03:24:41;;;;;;;4.00;3.10;;;18.30;99.90;;;;;;5100223;28;20176;-58
2023/06/30 03:27:06;;;;;;;5.50;3.20;;;18.30;99.90;;;;;;5100958;28;20191;-57
2023/06/30 03:29:32;;;;;;;5.07;2.77;;;18.30;99.90;;;;;;5098938;28;20267;-57
2023/06/30 03:31:57;;;;;;;3.37;2.30;;;18.30;99.90;;;;;;5099292;28;20528;-58
2023/06/30 03:34:23;;;;;;;4.67;2.10;;;18.30;99.90;;;;;;5099678;28;20275;-56
2023/06/30 03:36:49;;;;;;;4.93;2.47;;;18.20;99.90;;;;;;5099256;28;20582;-58
2023/06/30 03:39:17;;;;;;;4.17;2.60;;;18.20;99.90;;;;;;5098500;28;20471;-59
2023/06/30 03:41:43;;;;;;;6.70;2.87;;;18.10;99.90;;;;;;5097749;28;20172;-58
2023/06/30 03:44:11;;;;;;;4.57;2.23;;;18.20;99.90;;;;;;5098457;28;20172;-58
2023/06/30 03:46:39;;;;;;;4.00;2.50;;;18.10;99.90;;;;;;5097543;28;20186;-58
2023/06/30 03:49:05;;;;;;;4.60;2.87;;;18.10;99.90;;;;;;5098069;28;20176;-58
2023/06/30 03:51:31;;;;;;;10.33;2.83;;;18.20;99.90;;;;;;5095666;28;20545;-59
2023/06/30 03:53:56;;;;;;;4.77;2.93;;;18.20;99.90;;;;;;5094393;28;20248;-58
2023/06/30 03:56:22;;;;;;;3.67;2.60;;;18.20;99.90;;;;;;5094431;28;20179;-59
2023/06/30 03:58:47;;;;;;;5.27;2.97;;;18.20;99.90;;;;;;5096233;28;20171;-58
2023/06/30 04:01:13;;;;;;;5.53;2.60;;;18.20;99.90;;;;;;5096342;28;20165;-58
2023/06/30 04:03:39;;;;;;;4.23;2.50;;;18.20;99.90;;;;;;5095366;28;20267;-58
2023/06/30 04:06:04;;;;;;;4.87;2.70;;;18.20;99.90;;;;;;5095183;28;20168;-58
2023/06/30 04:08:33;;;;;;;6.67;3.10;;;18.20;99.90;;;;;;5096208;28;20168;-59
2023/06/30 04:10:58;;;;;;;6.40;2.87;;;18.20;99.90;;;;;;5096281;28;20233;-58
2023/06/30 04:13:24;;;;;;;4.27;3.17;;;18.20;99.90;;;;;;5097104;28;20172;-59
2023/06/30 04:15:49;;;;;;;4.43;2.83;;;18.20;99.90;;;;;;5095643;28;20255;-59
2023/06/30 04:18:15;;;;;;;4.23;3.40;;;18.10;99.90;;;;;;5093784;28;20564;-59
2023/06/30 04:20:40;;;;;;;4.97;2.90;;;18.10;99.90;;;;;;5092393;28;20172;-59
2023/06/30 04:23:06;;;;;;;3.20;2.87;;;18.10;99.90;;;;;;5091888;28;20212;-59
2023/06/30 04:25:32;;;;;;;7.07;2.93;;;18.20;99.90;;;;;;5092775;28;20188;-59
2023/06/30 04:27:57;;;;;;;5.63;2.60;;;18.20;99.90;;;;;;5094475;28;20194;-59
2023/06/30 04:30:23;;;;;;;4.17;2.73;;;18.20;99.90;;;;;;5094306;28;20249;-59
2023/06/30 04:32:50;;;;;;;8.77;3.33;;;18.20;99.90;;;;;;5095442;28;20231;-59
2023/06/30 04:35:19;;;;;;;3.83;2.07;;;18.30;99.90;;;;;;5095076;28;20168;-57
2023/06/30 04:37:45;;;;;;;4.17;2.70;;;18.30;99.90;;;;;;5096536;28;20588;-58
2023/06/30 04:40:10;;;;;;;3.93;2.73;;;18.20;99.90;;;;;;5094646;28;20477;-58
2023/06/30 04:42:39;;;;;;;3.70;1.90;;;18.30;99.90;;;;;;5095406;28;20580;-59
2023/06/30 04:45:05;;;;;;;1.77;1.30;;;18.30;99.90;;;;;;5093030;28;20174;-58
2023/06/30 04:47:31;;;;;;;2.87;1.60;;;18.30;99.90;;;;;;5091771;28;20168;-59
2023/06/30 04:49:59;;;;;;;4.67;1.60;;;18.20;99.90;;;;;;5090210;28;20883;-58
2023/06/30 04:52:25;;;;;;;3.27;1.67;;;18.30;99.90;;;;;;5083805;28;20521;-59
2023/06/30 04:54:56;;;;;;;2.87;1.73;;;18.30;99.90;;;;;;5083788;28;20552;-59
2023/06/30 04:57:24;;;;;;;1.77;1.20;;;18.30;99.90;;;;;;5083738;28;20277;-57
2023/06/30 04:59:54;;;;;;;2.53;1.60;;;18.30;99.90;;;;;;5085139;28;20164;-58
2023/06/30 05:02:20;;;;;;;1.87;1.40;;;18.30;99.90;;;;;;5086724;28;20171;-59
2023/06/30 05:04:45;;;;;;;3.30;1.27;;;18.20;99.90;;;;;;5088143;28;20352;-58
2023/06/30 05:07:11;;;;;;;3.17;1.50;;;18.20;99.90;;;;;;5087262;28;20172;-59
2023/06/30 05:09:37;;;;;;;6.30;1.50;;;18.20;99.90;;;;;;5087115;28;20225;-59
2023/06/30 05:12:12;;;;;;;5.37;1.57;;;18.20;99.90;;;;;;5085226;28;20395;-59
2023/06/30 05:14:40;;;;;;;3.73;1.77;;;18.20;99.90;;;;;;5087077;28;20183;-59
2023/06/30 05:17:06;;;;;;;3.77;1.53;;;18.20;99.90;;;;;;5086994;28;20346;-58
2023/06/30 05:19:31;;;;;;;2.40;1.73;;;18.20;99.90;;;;;;5085976;28;20400;-58
2023/06/30 05:21:57;;;;;;;3.33;2.07;;;18.20;99.90;;;;;;5092154;28;20716;-57
2023/06/30 05:24:23;;;;;;;9.23;1.83;;;18.20;99.90;;;;;;5092208;28;20248;-59
2023/06/30 05:26:48;;;;;;;6.40;2.00;;;18.20;99.90;;;;;;5092980;28;20207;-59
2023/06/30 05:29:14;;;;;;;5.50;2.00;;;18.10;99.90;;;;;;5093705;28;20663;-59
2023/06/30 05:31:39;;;;;;;3.27;1.30;;;18.10;99.90;;;;;;5093901;28;20219;-59
2023/06/30 05:34:05;;;;;;;4.33;1.67;;;18.10;99.90;;;;;;5091773;28;20184;-59
2023/06/30 05:36:30;;;;;;;4.17;1.80;;;18.20;99.90;;;;;;5091560;28;20172;-58
2023/06/30 05:38:57;;;;;;;3.03;1.60;;;18.20;99.90;;;;;;5089432;28;20232;-59
2023/06/30 05:41:23;;;;;;;3.97;1.67;;;18.20;99.90;;;;;;5090106;28;20473;-58
2023/06/30 05:43:51;;;;;;;6.13;2.17;;;18.20;99.90;;;;;;5089837;28;20176;-59
2023/06/30 05:46:17;;;;;;;2.40;1.77;;;18.10;99.90;;;;;;5091186;28;20702;-59
2023/06/30 05:48:42;;;;;;;3.17;1.70;;;18.10;99.90;;;;;;5089136;28;20705;-59
2023/06/30 05:51:08;;;;;;;3.83;1.50;;;18.10;99.90;;;;;;5089764;28;20273;-59
2023/06/30 05:53:35;;;;;;;2.93;1.40;;;18.10;99.90;;;;;;5091058;28;20183;-58
2023/06/30 05:56:01;;;;;;;2.97;1.73;;;18.10;99.90;;;;;;5091608;28;20172;-59
2023/06/30 05:58:27;;;;;;;3.67;1.70;;;18.10;99.90;;;;;;5091314;28;20179;-59
2023/06/30 06:00:53;;;;;;;3.37;1.80;;;18.10;99.90;;;;;;5090788;28;20203;-58
2023/06/30 06:03:23;;;;;;;4.07;1.73;;;18.10;99.90;;;;;;5090377;28;20190;-59
2023/06/30 06:05:52;;;;;;;4.90;1.73;;;18.00;99.90;;;;;;5090585;28;20744;-58
2023/06/30 06:08:17;;;;;;;4.40;1.80;;;18.00;99.90;;;;;;5091478;28;20207;-58
2023/06/30 06:10:48;;;;;;;3.20;1.90;;;18.00;99.90;;;;;;5091768;28;20192;-59
2023/06/30 06:13:40;;;;;;;3.93;2.00;;;18.00;99.90;;;;;;5088596;28;20192;-58
2023/06/30 06:16:08;;;;;;;4.10;2.37;;;18.00;99.90;;;;;;5088519;28;20544;-59
2023/06/30 06:18:35;;;;;;;5.33;1.90;;;18.00;99.90;;;;;;5085475;28;20784;-59
2023/06/30 06:21:05;;;;;;;6.60;2.53;;;17.90;99.90;;;;;;5083900;28;20542;-58
2023/06/30 06:23:31;;;;;;;2.60;2.17;;;17.90;99.90;;;;;;5084099;28;20271;-59
2023/06/30 06:25:58;;;;;;;2.47;2.20;;;17.80;99.90;;;;;;5081516;28;20164;-57
2023/06/30 06:28:24;;;;;;;6.40;3.17;;;17.80;99.90;;;;;;5083699;28;20786;-59
2023/06/30 06:30:50;;;;;;;3.97;3.67;;;17.80;99.90;;;;;;5083238;28;20241;-58
2023/06/30 06:33:16;;;;;;;4.67;2.63;;;17.90;99.90;;;;;;5084301;28;20643;-59
2023/06/30 06:35:41;;;;;;;3.00;1.93;;;17.90;99.90;;;;;;5082537;28;20176;-59
2023/06/30 06:38:08;;;;;;;4.23;1.60;;;17.80;99.90;;;;;;5082359;28;20156;-59
2023/06/30 06:40:35;;;;;;;5.27;2.47;;;17.80;99.90;;;;;;5083398;28;20169;-59
2023/06/30 06:43:00;;;;;;;4.80;2.53;;;17.80;99.90;;;;;;5084115;28;20171;-58
2023/06/30 06:45:26;;;;;;;3.63;2.20;;;17.80;99.90;;;;;;5085684;28;20156;-58
2023/06/30 06:48:27;;;;;;;5.07;2.10;;;17.80;99.90;;;;;;5085952;28;20233;-59
2023/06/30 06:50:58;;;;;;;2.77;2.50;;;17.80;99.90;;;;;;5084532;28;20175;-54
2023/06/30 06:53:27;;;;;;;5.90;3.37;;;17.90;99.90;;;;;;5085446;28;20164;-59
2023/06/30 06:55:55;;;;;;;5.40;2.73;;;17.90;99.90;;;;;;5084983;28;20180;-59
2023/06/30 06:58:22;;;;;;;5.73;2.00;;;17.90;99.90;;;;;;5069114;28;20176;-58
2023/06/30 07:00:49;;;;;;;4.93;1.80;;;17.90;99.90;;;;;;5087179;28;20604;-58
2023/06/30 07:03:15;;;;;;;3.40;1.70;;;17.90;99.90;;;;;;5089467;28;20235;-57
2023/06/30 07:05:44;;;;;;;3.60;1.27;;;17.90;99.90;;;;;;5088541;28;20168;-59
2023/06/30 07:08:12;;;;;;;5.83;2.00;;;17.90;99.90;;;;;;5087494;28;20235;-59
2023/06/30 07:10:39;;;;;;;2.80;1.50;;;17.90;99.90;;;;;;5088207;28;20203;-58
2023/06/30 07:13:05;;;;;;;8.17;2.53;;;17.90;99.90;;;;;;5087040;28;20255;-57
2023/06/30 07:15:33;;;;;;;6.27;1.90;;;17.80;99.90;;;;;;5087289;28;20221;-56
2023/06/30 07:18:01;;;;;;;7.43;1.83;;;17.80;99.90;;;;;;5083628;28;20187;-57
2023/06/30 07:20:27;;;;;;;3.20;1.50;;;17.80;99.90;;;;;;5084662;28;20324;-59
2023/06/30 07:22:55;;;;;;;6.87;1.33;;;17.80;99.90;;;;;;5085545;28;20255;-59
2023/06/30 07:25:25;;;;;;;2.83;1.43;;;17.80;99.90;;;;;;5071912;28;20195;-59
2023/06/30 07:27:54;;;;;;;4.17;1.80;;;17.80;99.90;;;;;;5090363;28;20233;-58
2023/06/30 07:30:21;;;;;;;4.23;1.60;;;17.90;99.90;;;;;;5090060;28;20227;-59
2023/06/30 07:32:48;;;;;;;5.13;1.90;;;17.90;99.90;;;;;;5089773;28;20801;-60
2023/06/30 07:35:14;;;;;;;4.17;1.83;;;18.00;99.90;;;;;;5088315;28;20172;-59
2023/06/30 07:37:41;;;;;;;4.20;1.70;;;18.00;99.90;;;;;;5087542;28;20168;-59
2023/06/30 07:40:09;;;;;;;3.97;1.90;;;18.00;99.90;;;;;;5085527;28;20184;-60
2023/06/30 07:42:34;;;;;;;3.43;1.67;;;18.10;99.90;;;;;;5083084;28;20270;-58
2023/06/30 07:45:02;;;;;;;3.20;2.30;;;18.10;99.90;;;;;;5082175;28;20279;-60
2023/06/30 07:47:28;;;;;;;4.80;2.00;;;18.10;99.90;;;;;;5083458;28;20175;-58
2023/06/30 07:49:55;;;;;;;3.27;2.00;;;18.10;99.90;;;;;;5081793;28;20179;-59
2023/06/30 07:52:20;;;;;;;5.87;2.73;;;18.20;99.90;;;;;;5080240;28;20793;-58
2023/06/30 07:54:49;;;;;;;6.40;4.43;;;18.20;99.90;;;;;;5082417;28;20230;-59
2023/06/30 07:57:14;;;;;;;5.77;5.37;;;18.20;99.90;;;;;;5083015;28;20267;-58
2023/06/30 07:59:40;;;;;;;8.77;6.60;;;18.30;99.90;;;;;;5083790;28;20266;-59
2023/06/30 08:02:06;;;;;;;8.07;7.33;;;18.30;99.90;;;;;;5086080;28;20656;-60
2023/06/30 08:04:35;;;;;;;4.73;4.43;;;18.40;99.90;;;;;;5085303;28;20168;-59
2023/06/30 08:07:02;;;;;;;4.70;2.80;;;18.40;99.90;;;;;;5088533;28;20198;-57
2023/06/30 08:09:28;;;;;;;2.33;1.87;;;18.40;99.90;;;;;;5086381;28;20781;-59
2023/06/30 08:11:54;;;;;;;2.83;1.80;;;18.40;99.90;;;;;;5088776;28;20199;-60
2023/06/30 08:14:20;;;;;;;3.43;1.87;;;18.40;99.90;;;;;;5088648;28;20254;-59
2023/06/30 08:16:47;;;;;;;1.90;1.70;;;18.50;99.90;;;;;;5088339;28;20540;-60
2023/06/30 08:19:14;;;;;;;4.63;1.73;;;18.40;99.90;;;;;;5090052;28;20164;-59
2023/06/30 08:21:40;;;;;;;4.53;1.70;;;18.30;99.90;;;;;;5089166;28;20164;-59
2023/06/30 08:24:05;;;;;;;4.13;1.80;;;18.30;99.90;;;;;;5091068;28;20165;-59
2023/06/30 08:26:31;;;;;;;5.13;1.83;;;18.40;99.90;;;;;;5090115;28;20489;-57
2023/06/30 08:28:58;;;;;;;3.97;1.93;;;18.50;99.90;;;;;;5073148;28;20224;-59
2023/06/30 08:31:23;;;;;;;4.67;1.57;;;18.50;99.90;;;;;;5090301;28;20311;-58
2023/06/30 08:33:49;;;;;;;5.30;2.40;;;18.60;99.90;;;;;;5091578;28;20283;-59
2023/06/30 08:36:15;;;;;;;3.87;1.93;;;18.70;99.90;;;;;;5091092;28;20180;-59
2023/06/30 08:38:41;;;;;;;5.17;1.97;;;18.70;99.90;;;;;;5092551;28;20557;-60
2023/06/30 08:41:08;;;;;;;5.73;2.10;;;18.80;99.90;;;;;;5073262;28;20223;-60
2023/06/30 08:43:38;;;;;;;3.00;1.60;;;18.90;99.90;;;;;;5092368;28;20237;-60
2023/06/30 08:46:07;;;;;;;4.87;1.63;;;18.80;99.90;;;;;;5092162;28;20215;-60
2023/06/30 08:48:35;;;;;;;5.20;2.10;;;18.80;99.90;;;;;;5092208;28;20168;-60
2023/06/30 08:51:02;;;;;;;2.70;2.10;;;18.80;99.90;;;;;;5092033;28;20232;-60
2023/06/30 08:53:30;;;;;;;3.87;2.60;;;18.90;99.90;;;;;;5089822;28;20171;-60
2023/06/30 08:55:59;;;;;;;2.40;2.20;;;19.00;99.90;;;;;;5088599;28;20163;-60
2023/06/30 08:58:28;;;;;;;4.77;2.17;;;19.00;99.90;;;;;;5088697;28;20233;-58
2023/06/30 09:00:55;;;;;;;6.63;2.30;;;19.10;99.90;;;;;;5090314;28;20169;-58
2023/06/30 09:03:21;;;;;;;4.57;2.50;;;19.10;99.90;;;;;;5087942;28;20221;-59
2023/06/30 09:05:50;;;;;;;3.07;2.73;;;19.10;99.90;;;;;;5085187;28;20175;-57
2023/06/30 09:08:23;;;;;;;5.37;4.97;;;19.10;99.90;;;;;;5068943;28;20176;-57
2023/06/30 09:10:50;;;;;;;9.37;8.73;;;19.10;99.90;;;;;;5085374;28;20178;-60
2023/06/30 09:13:20;;;;;;;7.77;7.23;;;19.10;99.90;;;;;;5085113;28;20434;-57
2023/06/30 09:15:46;;;;;;;5.67;5.27;;;19.20;99.90;;;;;;5082432;28;20764;-57
2023/06/30 09:18:12;;;;;;;6.03;5.63;;;19.20;99.90;;;;;;5081100;28;20164;-57
2023/06/30 09:20:38;;;;;;;5.90;5.43;;;19.30;99.90;;;;;;5080931;28;20172;-56
2023/06/30 09:23:04;;;;;;;4.60;4.30;;;19.40;99.90;;;;;;5080611;28;20168;-58
2023/06/30 09:25:33;;;;;;;7.00;5.33;;;19.30;99.90;;;;;;5081365;28;20236;-55
2023/06/30 09:27:58;;;;;;;7.67;7.07;;;19.40;99.90;;;;;;5080867;28;20241;-57
2023/06/30 09:30:35;;;;;;;9.70;9.20;;;19.40;99.90;;;;;;5084364;28;20263;-56
2023/06/30 09:33:05;;;;;;;7.73;7.00;;;19.50;99.90;;;;;;5085500;28;20287;-58
2023/06/30 09:35:42;;;;;;;2.43;2.17;;;19.50;99.90;;;;;;5085709;28;20430;-59
2023/06/30 09:38:12;;;;;;;3.90;3.03;;;19.50;99.90;;;;;;5084984;28;20224;-59
2023/06/30 09:40:44;;;;;;;3.20;3.00;;;19.60;99.90;;;;;;5086753;28;20199;-59
2023/06/30 09:43:18;;;;;;;6.70;2.83;;;19.50;99.90;;;;;;5086182;28;20341;-59
2023/06/30 09:46:02;;;;;;;3.87;3.53;;;19.60;99.90;;;;;;5083257;28;20171;-58
2023/06/30 09:48:35;;;;;;;4.70;4.27;;;19.60;99.90;;;;;;5082867;28;20164;-59
2023/06/30 09:51:01;;;;;;;5.00;4.60;;;19.60;99.90;;;;;;5083321;28;20164;-59
2023/06/30 09:53:37;;;;;;;4.43;2.80;;;19.60;99.90;;;;;;5082551;28;20164;-57
2023/06/30 09:56:05;;;;;;;3.17;1.60;;;19.60;99.90;;;;;;5084691;28;20176;-58
2023/06/30 09:58:36;;;;;;;2.13;1.57;;;19.70;99.90;;;;;;5086742;28;20267;-58
2023/06/30 10:01:01;;;;;;;2.07;1.80;;;19.70;99.90;;;;;;5072647;28;20814;-56
2023/06/30 10:03:27;;;;;;;1.70;1.40;;;19.80;99.90;;;;;;5088862;28;20164;-56
2023/06/30 10:05:53;;;;;;;2.93;2.37;;;19.80;99.90;;;;;;5073672;28;20175;-58
2023/06/30 10:08:21;;;;;;;4.60;4.03;;;19.80;99.90;;;;;;5089089;28;20191;-57
2023/06/30 10:10:51;;;;;;;4.10;3.80;;;19.90;99.90;;;;;;5089929;28;20456;-57
2023/06/30 10:13:18;;;;;;;5.43;4.93;;;19.90;99.90;;;;;;5090905;28;20195;-57
2023/06/30 10:15:44;;;;;;;8.33;7.73;;;19.90;99.90;;;;;;5090368;28;20592;-58
2023/06/30 10:18:11;;;;;;;13.60;12.60;;;19.90;99.90;;;;;;5091362;28;20182;-58
2023/06/30 10:20:37;;;;;;;10.13;9.43;;;19.80;99.90;;;;;;5073820;28;20172;-56
2023/06/30 10:23:06;;;;;;;14.53;13.63;;;19.70;99.90;;;;;;5095318;28;20292;-58
2023/06/30 10:25:36;;;;;;;17.17;16.17;;;19.70;99.90;;;;;;5096306;28;20164;-59
2023/06/30 10:28:02;;;;;;;14.43;13.47;;;19.70;99.90;;;;;;5095769;28;20168;-58
2023/06/30 10:30:28;;;;;;;10.97;10.17;;;19.70;99.90;;;;;;5092667;28;20306;-58
2023/06/30 10:32:55;;;;;;;6.73;6.00;;;19.80;99.90;;;;;;5092195;28;20599;-58
2023/06/30 10:35:21;;;;;;;4.80;4.30;;;19.80;99.90;;;;;;5088205;28;20164;-57
2023/06/30 10:37:48;;;;;;;4.53;4.23;;;19.80;99.90;;;;;;5086566;28;20164;-53
2023/06/30 10:40:27;;;;;;;5.73;5.03;;;19.80;99.90;;;;;;5089584;28;20171;-55
2023/06/30 10:43:27;;;;;;;4.23;3.83;;;19.80;99.90;;;;;;5090365;28;20168;-52
2023/06/30 10:46:06;;;;;;;6.27;3.00;;;19.80;99.90;;;;;;5089607;28;20168;-54
2023/06/30 10:48:32;;;;;;;3.63;3.33;;;19.80;99.90;;;;;;5090824;28;20446;-56
2023/06/30 10:50:58;;;;;;;4.30;2.50;;;19.90;99.90;;;;;;5092461;28;20168;-55
2023/06/30 10:53:26;;;;;;;3.30;2.73;;;19.90;99.90;;;;;;5088306;28;20251;-51
2023/06/30 10:55:56;;;;;;;5.27;2.23;;;19.90;99.90;;;;;;5086214;28;20590;-54
2023/06/30 10:58:23;;;;;;;3.77;2.90;;;20.00;99.90;;;;;;5086074;28;20168;-55
2023/06/30 11:01:05;;;;;;;4.30;3.03;;;20.00;99.90;;;;;;5084207;28;20164;-53
2023/06/30 11:03:57;;;;;;;3.20;2.90;;;20.10;99.90;;;;;;5082677;28;20239;-55
2023/06/30 11:06:23;;;;;;;3.30;2.60;;;20.20;99.90;;;;;;5067722;28;20188;-54
2023/06/30 11:09:03;;;;;;;3.57;2.87;;;20.20;99.90;;;;;;5080272;28;20169;-53
2023/06/30 11:11:29;;;;;;;2.47;2.20;;;20.30;99.90;;;;;;5081903;28;20195;-55
2023/06/30 11:14:07;;;;;;;2.20;2.10;;;20.40;99.90;;;;;;5078042;28;20178;-56
2023/06/30 11:17:04;;;;;;;3.27;1.80;;;20.40;99.90;;;;;;5072023;28;20246;-55
2023/06/30 11:19:30;;;;;;;5.30;2.80;;;20.50;99.90;;;;;;5072125;28;20781;-55
2023/06/30 11:22:25;;;;;;;3.17;2.97;;;20.50;99.90;;;;;;5080478;28;20265;-55
2023/06/30 11:24:51;;;;;;;4.70;3.17;;;20.60;99.90;;;;;;5079228;28;20184;-55
2023/06/30 11:27:18;;;;;;;5.27;4.87;;;20.50;99.90;;;;;;5082554;28;20180;-55
2023/06/30 11:29:44;;;;;;;30.83;29.30;;;20.60;99.90;;;;;;5086701;28;20172;-57
2023/06/30 11:32:10;;;;;;;28.50;27.00;;;20.70;99.90;;;;;;5087360;28;20295;-54
2023/06/30 11:34:36;;;;;;;15.17;14.37;;;20.70;99.90;;;;;;5089930;28;20171;-53
2023/06/30 11:37:05;;;;;;;10.27;9.60;;;20.60;99.90;;;;;;5089771;28;20172;-51
2023/06/30 11:39:31;;;;;;;9.63;8.73;;;20.70;99.90;;;;;;5089550;28;20251;-56
2023/06/30 11:41:56;;;;;;;5.00;4.60;;;20.80;99.90;;;;;;5091003;28;20325;-53
2023/06/30 11:44:34;;;;;;;8.63;8.10;;;20.80;99.90;;;;;;5091027;28;20179;-51
2023/06/30 11:47:01;;;;;;;5.63;5.33;;;20.90;99.90;;;;;;5089738;28;20336;-56
2023/06/30 11:49:28;;;;;;;3.07;2.87;;;21.00;99.90;;;;;;5091147;28;20278;-56
2023/06/30 11:52:01;;;;;;;4.80;2.40;;;21.00;99.90;;;;;;5091366;28;20507;-53
2023/06/30 11:54:36;;;;;;;2.80;2.37;;;21.00;99.90;;;;;;5089517;28;20232;-58
2023/06/30 11:57:03;;;;;;;4.80;4.40;;;21.10;99.90;;;;;;5090056;28;20166;-53
2023/06/30 11:59:31;;;;;;;2.70;2.20;;;21.20;99.90;;;;;;5090364;28;20176;-58
2023/06/30 12:01:56;;;;;;;2.80;2.57;;;21.30;99.90;;;;;;5089557;28;20278;-57
2023/06/30 12:04:35;;;;;;;3.00;2.70;;;21.40;99.90;;;;;;5083214;28;20268;-58
2023/06/30 12:07:03;;;;;;;2.60;2.40;;;21.60;99.90;;;;;;5084146;28;20175;-57
2023/06/30 12:09:29;;;;;;;2.43;2.23;;;21.70;99.90;;;;;;5082284;28;20176;-56
2023/06/30 12:11:56;;;;;;;3.60;3.30;;;21.70;99.90;;;;;;5084412;28;20586;-58
2023/06/30 12:14:25;;;;;;;3.27;3.07;;;21.80;99.90;;;;;;5084913;28;20168;-57
2023/06/30 12:16:53;;;;;;;4.33;2.83;;;21.90;99.90;;;;;;5089541;28;20187;-57
2023/06/30 12:19:27;;;;;;;4.67;3.53;;;22.00;99.90;;;;;;5088797;28;20172;-56
2023/06/30 12:22:00;;;;;;;5.17;4.70;;;22.00;99.90;;;;;;5090749;28;20495;-57
2023/06/30 12:24:31;;;;;;;4.90;4.50;;;22.10;99.90;;;;;;5091660;28;20183;-57
2023/06/30 12:26:57;;;;;;;4.47;4.07;;;22.20;99.90;;;;;;5090349;28;20175;-56
2023/06/30 12:29:30;;;;;;;6.17;5.83;;;22.30;99.90;;;;;;5089592;28;20187;-58
2023/06/30 12:31:55;;;;;;;11.33;10.63;;;22.40;99.90;;;;;;5085261;28;20254;-58
2023/06/30 12:34:34;;;;;;;9.27;8.77;;;22.50;99.90;;;;;;5086265;28;20192;-54
2023/06/30 12:37:23;;;;;;;17.20;16.40;;;22.60;99.90;;;;;;5081354;28;20176;-55
2023/06/30 12:39:49;;;;;;;14.43;13.73;;;22.60;99.90;;;;;;5086948;28;20160;-56
2023/06/30 12:42:18;;;;;;;13.00;12.27;;;22.40;99.90;;;;;;5087063;28;20174;-55
2023/06/30 12:44:43;;;;;;;12.57;11.77;;;22.40;99.90;;;;;;5087461;28;20240;-54
2023/06/30 12:47:10;;;;;;;13.73;13.00;;;22.40;99.90;;;;;;5085532;28;20172;-55
2023/06/30 12:49:39;;;;;;;13.47;12.57;;;22.50;99.90;;;;;;5079090;28;20556;-53
2023/06/30 12:52:05;;;;;;;15.07;14.30;;;22.60;99.90;;;;;;5096240;28;20280;-51
2023/06/30 12:54:32;;;;;;;17.10;16.20;;;22.70;99.90;;;;;;5064226;28;20173;-52